createdAt,value
2023-03-11T00:00:26.325Z,13.60
2023-03-11T00:02:55.769Z,14.30
2023-03-11T00:05:31.101Z,13.00
2023-03-11T00:07:58.893Z,13.30
2023-03-11T00:10:35.164Z,13.30
2023-03-11T00:13:03.648Z,14.50
2023-03-11T00:15:30.979Z,12.60
2023-03-11T00:17:58.534Z,15.70
2023-03-11T00:20:29.657Z,12.30
2023-03-11T00:22:57.707Z,16.60
2023-03-11T00:25:26.628Z,13.70
2023-03-11T00:27:53.756Z,15.40
2023-03-11T00:30:22.201Z,15.30
2023-03-11T00:32:50.840Z,13.50
2023-03-11T00:35:20.689Z,14.70
2023-03-11T00:37:49.264Z,13.40
2023-03-11T00:40:19.363Z,12.80
2023-03-11T00:42:47.136Z,14.10
2023-03-11T00:45:15.093Z,14.70
2023-03-11T00:47:42.960Z,13.40
2023-03-11T00:50:16.026Z,14.10
2023-03-11T00:52:43.479Z,13.80
2023-03-11T00:55:13.519Z,12.10
2023-03-11T00:57:42.686Z,12.90
2023-03-11T01:00:14.802Z,11.70
2023-03-11T01:02:42.172Z,11.50
2023-03-11T01:05:10.506Z,12.00
2023-03-11T01:07:37.638Z,14.40
2023-03-11T01:10:06.921Z,13.20
2023-03-11T01:12:34.210Z,10.60
2023-03-11T01:15:02.605Z,13.60
2023-03-11T01:17:29.583Z,13.40
2023-03-11T01:19:57.720Z,11.80
2023-03-11T01:22:25.070Z,11.00
2023-03-11T01:24:52.128Z,13.40
2023-03-11T01:27:19.142Z,12.80
2023-03-11T01:29:46.192Z,11.80
2023-03-11T01:32:13.419Z,14.80
2023-03-11T01:34:40.506Z,13.50
2023-03-11T01:37:07.507Z,13.40
2023-03-11T01:39:34.545Z,15.00
2023-03-11T01:42:01.577Z,11.40
2023-03-11T01:44:29.265Z,14.50
2023-03-11T01:46:58.680Z,12.30
2023-03-11T01:49:29.964Z,14.20
2023-03-11T01:52:08.296Z,15.80
2023-03-11T01:54:42.151Z,12.00
2023-03-11T01:57:13.302Z,11.60
2023-03-11T01:59:49.086Z,11.90
2023-03-11T02:02:34.504Z,11.90
2023-03-11T02:05:02.745Z,13.30
2023-03-11T02:07:30.240Z,10.70
2023-03-11T02:09:57.796Z,13.40
2023-03-11T02:12:25.613Z,13.30
2023-03-11T02:14:54.798Z,11.70
2023-03-11T02:17:22.566Z,11.40
2023-03-11T02:20:01.838Z,11.40
2023-03-11T02:22:33.686Z,9.80
2023-03-11T02:25:23.374Z,12.20
2023-03-11T02:27:53.601Z,12.60
2023-03-11T02:30:24.323Z,13.30
2023-03-11T02:32:51.541Z,11.20
2023-03-11T02:35:18.959Z,12.00
2023-03-11T02:37:48.213Z,11.60
2023-03-11T02:40:24.151Z,12.60
2023-03-11T02:43:00.610Z,11.90
2023-03-11T02:45:32.003Z,11.70
2023-03-11T02:48:01.141Z,12.70
2023-03-11T02:50:31.505Z,11.00
2023-03-11T02:52:58.699Z,12.50
2023-03-11T02:55:25.647Z,11.30
2023-03-11T02:57:52.639Z,13.30
2023-03-11T03:00:20.687Z,11.20
2023-03-11T03:02:53.537Z,17.60
2023-03-11T03:05:22.067Z,12.10
2023-03-11T03:07:50.540Z,11.80
2023-03-11T03:10:19.276Z,13.90
2023-03-11T03:12:46.329Z,12.70
2023-03-11T03:15:16.103Z,10.20
2023-03-11T03:17:43.965Z,11.20
2023-03-11T03:20:12.164Z,9.50
2023-03-11T03:22:42.552Z,11.20
2023-03-11T03:25:11.107Z,10.50
2023-03-11T03:27:38.569Z,11.70
2023-03-11T03:30:07.568Z,11.20
2023-03-11T03:32:35.487Z,10.60
2023-03-11T03:35:03.717Z,9.80
2023-03-11T03:37:48.920Z,10.60
2023-03-11T03:40:16.485Z,9.30
2023-03-11T03:42:43.620Z,9.30
2023-03-11T03:45:11.353Z,12.20
2023-03-11T03:47:39.132Z,10.40
2023-03-11T03:50:09.319Z,9.50
2023-03-11T03:52:37.940Z,10.90
2023-03-11T03:55:06.727Z,11.20
2023-03-11T03:57:33.793Z,9.90
2023-03-11T04:00:00.741Z,8.60
2023-03-11T04:02:27.925Z,10.50
2023-03-11T04:04:56.194Z,8.80
2023-03-11T04:07:23.224Z,11.20
2023-03-11T04:09:50.142Z,13.60
2023-03-11T04:12:20.341Z,12.30
2023-03-11T04:14:47.323Z,9.90
2023-03-11T04:17:15.073Z,10.90
2023-03-11T04:19:42.149Z,10.10
2023-03-11T04:22:11.262Z,8.50
2023-03-11T04:24:38.963Z,8.90
2023-03-11T04:27:06.106Z,8.40
2023-03-11T04:29:33.483Z,9.80
2023-03-11T04:32:00.444Z,9.50
2023-03-11T04:34:27.473Z,8.70
2023-03-11T04:36:55.700Z,10.80
2023-03-11T04:39:27.339Z,11.20
2023-03-11T04:41:54.667Z,9.90
2023-03-11T04:44:22.885Z,8.50
2023-03-11T04:46:50.138Z,8.50
2023-03-11T04:49:17.211Z,9.70
2023-03-11T04:51:44.557Z,10.00
2023-03-11T04:54:12.026Z,12.70
2023-03-11T04:56:39.363Z,9.60
2023-03-11T04:59:06.742Z,10.20
2023-03-11T05:01:34.869Z,10.90
2023-03-11T05:04:03.724Z,10.30
2023-03-11T05:06:30.694Z,9.50
2023-03-11T05:08:59.182Z,9.60
2023-03-11T05:11:26.513Z,11.00
2023-03-11T05:13:53.471Z,10.50
2023-03-11T05:16:21.115Z,13.10
2023-03-11T05:18:48.272Z,12.00
2023-03-11T05:21:15.771Z,11.00
2023-03-11T05:23:43.490Z,11.60
2023-03-11T05:26:10.891Z,8.80
2023-03-11T05:28:39.324Z,9.80
2023-03-11T05:31:10.742Z,7.20
2023-03-11T05:33:38.630Z,10.00
2023-03-11T05:36:08.762Z,8.00
2023-03-11T05:38:37.062Z,7.60
2023-03-11T05:41:04.434Z,7.40
2023-03-11T05:43:31.603Z,8.40
2023-03-11T05:45:59.437Z,11.00
2023-03-11T05:48:26.641Z,7.80
2023-03-11T05:50:53.807Z,9.30
2023-03-11T05:53:20.961Z,10.90
2023-03-11T05:55:56.706Z,8.70
2023-03-11T05:58:24.290Z,11.00
2023-03-11T06:00:51.515Z,9.50
2023-03-11T06:03:19.180Z,9.60
2023-03-11T06:05:47.984Z,9.50
2023-03-11T06:08:15.841Z,10.00
2023-03-11T06:10:43.586Z,12.40
2023-03-11T06:13:11.359Z,9.30
2023-03-11T06:15:47.109Z,9.80
2023-03-11T06:18:14.130Z,9.40
2023-03-11T06:20:41.149Z,8.40
2023-03-11T06:23:08.102Z,9.30
2023-03-11T06:25:35.166Z,9.70
2023-03-11T06:28:02.558Z,10.00
2023-03-11T06:30:30.554Z,9.30
2023-03-11T06:33:04.510Z,7.60
2023-03-11T06:35:31.640Z,9.60
2023-03-11T06:37:59.234Z,8.90
2023-03-11T06:40:26.429Z,10.20
2023-03-11T06:42:53.641Z,8.90
2023-03-11T06:45:21.613Z,10.20
2023-03-11T06:47:48.744Z,8.90
2023-03-11T06:50:16.036Z,11.30
2023-03-11T06:52:43.287Z,10.50
2023-03-11T06:55:10.382Z,9.30
2023-03-11T06:57:37.583Z,11.80
2023-03-11T07:00:08.033Z,11.00
2023-03-11T07:02:35.672Z,11.00
2023-03-11T07:05:02.690Z,12.10
2023-03-11T07:07:30.483Z,9.20
2023-03-11T07:10:00.186Z,8.50
2023-03-11T07:12:27.529Z,10.30
2023-03-11T07:14:59.393Z,8.20
2023-03-11T07:17:28.034Z,10.80
2023-03-11T07:19:55.225Z,11.40
2023-03-11T07:22:22.309Z,10.20
2023-03-11T07:24:49.587Z,10.60
2023-03-11T07:27:17.720Z,9.80
2023-03-11T07:29:45.065Z,16.60
2023-03-11T07:32:12.050Z,9.20
2023-03-11T07:34:39.117Z,12.00
2023-03-11T07:37:06.050Z,12.10
2023-03-11T07:39:32.976Z,12.10
2023-03-11T07:41:59.837Z,11.10
2023-03-11T07:44:34.115Z,16.50
2023-03-11T07:47:05.561Z,13.80
2023-03-11T07:49:33.297Z,14.00
2023-03-11T07:52:00.292Z,17.10
2023-03-11T07:54:27.316Z,18.00
2023-03-11T07:56:54.615Z,20.00
2023-03-11T07:59:21.527Z,13.90
2023-03-11T08:01:48.419Z,20.00
2023-03-11T08:04:17.235Z,17.70
2023-03-11T08:06:46.896Z,20.20
2023-03-11T08:09:14.103Z,14.60
2023-03-11T08:11:41.897Z,18.60
2023-03-11T08:14:10.167Z,19.50
2023-03-11T08:16:39.806Z,17.80
2023-03-11T08:19:06.754Z,15.00
2023-03-11T08:21:33.687Z,16.90
2023-03-11T08:24:02.612Z,14.20
2023-03-11T08:26:33.320Z,15.30
2023-03-11T08:29:00.264Z,15.00
2023-03-11T08:31:30.110Z,19.00
2023-03-11T08:34:02.151Z,20.30
2023-03-11T08:36:30.147Z,20.40
2023-03-11T08:38:57.677Z,19.10
2023-03-11T08:41:25.382Z,17.90
2023-03-11T08:43:52.471Z,17.30
2023-03-11T08:46:51.778Z,16.50
2023-03-11T08:49:18.761Z,16.20
2023-03-11T08:51:46.335Z,18.70
2023-03-11T08:54:13.724Z,16.10
2023-03-11T08:56:41.340Z,15.30
2023-03-11T08:59:08.908Z,18.50
2023-03-11T09:01:36.690Z,21.10
2023-03-11T09:04:04.749Z,14.10
2023-03-11T09:06:32.305Z,16.80
2023-03-11T09:08:59.265Z,16.10
2023-03-11T09:11:26.575Z,20.20
2023-03-11T09:13:54.800Z,15.40
2023-03-11T09:16:23.521Z,14.80
2023-03-11T09:18:50.539Z,16.40
2023-03-11T09:21:17.847Z,19.80
2023-03-11T09:23:45.108Z,17.30
2023-03-11T09:26:13.721Z,16.70
2023-03-11T09:28:42.241Z,19.30
2023-03-11T09:31:09.825Z,17.10
2023-03-11T09:33:38.719Z,15.30
2023-03-11T09:36:10.119Z,16.10
2023-03-11T09:38:37.056Z,11.30
2023-03-11T09:41:29.305Z,15.00
2023-03-11T09:44:22.526Z,15.90
2023-03-11T09:47:27.091Z,15.30
2023-03-11T09:50:07.720Z,13.20
2023-03-11T09:53:04.408Z,13.20
2023-03-11T09:55:34.902Z,14.60
2023-03-11T09:58:09.768Z,14.70
2023-03-11T10:00:36.907Z,15.40
2023-03-11T10:03:13.350Z,14.40
2023-03-11T10:05:42.806Z,11.70
2023-03-11T10:08:25.780Z,12.90
2023-03-11T10:11:06.267Z,18.00
2023-03-11T10:14:05.672Z,14.30
2023-03-11T10:16:45.825Z,11.80
2023-03-11T10:19:49.519Z,17.90
2023-03-11T10:22:35.931Z,13.60
2023-03-11T10:25:19.583Z,13.60
2023-03-11T10:27:52.078Z,13.00
2023-03-11T10:30:41.401Z,11.70
2023-03-11T10:33:21.629Z,9.20
2023-03-11T10:35:53.648Z,14.10
2023-03-11T10:38:33.561Z,12.50
2023-03-11T10:41:06.905Z,11.90
2023-03-11T10:43:37.356Z,10.40
2023-03-11T10:46:11.246Z,9.70
2023-03-11T10:48:38.423Z,14.90
2023-03-11T10:51:22.774Z,9.10
2023-03-11T10:53:54.502Z,7.90
2023-03-11T10:56:39.453Z,23.50
2023-03-11T10:59:24.984Z,11.80
2023-03-11T11:02:00.667Z,12.80
2023-03-11T11:04:33.384Z,9.00
2023-03-11T11:07:41.322Z,8.70
2023-03-11T11:10:27.815Z,13.60
2023-03-11T11:13:01.065Z,9.90
2023-03-11T11:15:37.246Z,10.20
2023-03-11T11:18:18.494Z,12.10
2023-03-11T11:20:57.373Z,11.20
2023-03-11T11:23:43.720Z,9.20
2023-03-11T11:26:24.453Z,9.90
2023-03-11T11:29:09.804Z,10.70
2023-03-11T11:31:39.218Z,8.80
2023-03-11T11:34:29.864Z,8.20
2023-03-11T11:36:58.798Z,9.30
2023-03-11T11:39:29.294Z,9.10
2023-03-11T11:41:57.272Z,7.90
2023-03-11T11:44:36.597Z,7.40
2023-03-11T11:47:37.001Z,10.90
2023-03-11T11:50:14.228Z,11.00
2023-03-11T11:52:47.860Z,11.30
2023-03-11T11:55:23.305Z,8.90
2023-03-11T11:57:51.669Z,7.70
2023-03-11T12:00:26.062Z,7.50
2023-03-11T12:02:52.917Z,8.80
2023-03-11T12:06:03.112Z,12.50
2023-03-11T12:08:46.277Z,10.00
2023-03-11T12:11:30.625Z,13.10
2023-03-11T12:14:10.766Z,8.10
2023-03-11T12:16:47.868Z,5.60
2023-03-11T12:19:44.575Z,9.00
2023-03-11T12:22:21.147Z,6.90
2023-03-11T12:25:22.597Z,6.70
2023-03-11T12:28:15.443Z,8.90
2023-03-11T12:30:46.581Z,10.20
2023-03-11T12:33:32.329Z,10.30
2023-03-11T12:36:01.492Z,10.60
2023-03-11T12:38:33.445Z,8.30
2023-03-11T12:41:14.361Z,6.30
2023-03-11T12:43:41.776Z,7.10
2023-03-11T12:46:11.126Z,8.30
2023-03-11T12:48:50.615Z,9.60
2023-03-11T12:51:26.678Z,6.70
2023-03-11T12:53:56.154Z,8.90
2023-03-11T12:56:40.935Z,6.50
2023-03-11T12:59:26.148Z,14.50
2023-03-11T13:02:21.357Z,10.40
2023-03-11T13:05:10.369Z,9.60
2023-03-11T13:07:51.521Z,8.70
2023-03-11T13:10:18.748Z,7.90
2023-03-11T13:12:49.484Z,7.60
2023-03-11T13:15:20.342Z,10.60
2023-03-11T13:18:03.297Z,6.90
2023-03-11T13:20:39.674Z,7.60
2023-03-11T13:23:09.830Z,8.90
2023-03-11T13:25:50.023Z,7.50
2023-03-11T13:28:42.208Z,8.50
2023-03-11T13:31:31.078Z,8.30
2023-03-11T13:34:07.318Z,8.90
2023-03-11T13:36:57.001Z,7.30
2023-03-11T13:39:33.170Z,7.60
2023-03-11T13:42:00.773Z,5.00
2023-03-11T13:44:38.346Z,6.20
2023-03-11T13:47:14.933Z,6.20
2023-03-11T13:49:54.626Z,7.50
2023-03-11T13:52:28.057Z,9.30
2023-03-11T13:54:58.202Z,9.90
2023-03-11T13:57:29.704Z,9.50
2023-03-11T13:59:58.312Z,8.00
2023-03-11T14:02:27.913Z,5.30
2023-03-11T14:04:59.047Z,9.60
2023-03-11T14:07:32.339Z,9.70
2023-03-11T14:10:21.097Z,7.90
2023-03-11T14:12:48.574Z,8.70
2023-03-11T14:15:27.281Z,8.80
2023-03-11T14:17:55.568Z,9.20
2023-03-11T14:20:29.196Z,8.70
2023-03-11T14:22:57.147Z,10.20
2023-03-11T14:25:31.352Z,7.50
2023-03-11T14:28:02.405Z,7.70
2023-03-11T14:30:32.639Z,8.50
2023-03-11T14:33:20.794Z,10.50
2023-03-11T14:36:07.352Z,8.70
2023-03-11T14:38:34.390Z,5.30
2023-03-11T14:41:04.705Z,7.10
2023-03-11T14:43:41.830Z,6.40
2023-03-11T14:46:09.894Z,9.10
2023-03-11T14:48:40.489Z,10.50
2023-03-11T14:51:17.986Z,10.00
2023-03-11T14:53:51.317Z,8.00
2023-03-11T14:56:24.045Z,7.60
2023-03-11T14:59:08.410Z,10.60
2023-03-11T15:01:42.440Z,7.50
2023-03-11T15:04:13.436Z,7.70
2023-03-11T15:06:44.164Z,9.30
2023-03-11T15:09:21.075Z,5.70
2023-03-11T15:11:52.300Z,5.60
2023-03-11T15:14:28.083Z,7.60
2023-03-11T15:16:57.120Z,9.80
2023-03-11T15:19:32.357Z,6.50
2023-03-11T15:22:25.532Z,8.60
2023-03-11T15:24:59.009Z,7.90
2023-03-11T15:27:35.233Z,6.20
2023-03-11T15:30:05.205Z,7.60
2023-03-11T15:32:32.185Z,8.30
2023-03-11T15:35:08.469Z,6.70
2023-03-11T15:37:35.561Z,7.10
2023-03-11T15:40:44.873Z,8.10
2023-03-11T15:43:15.413Z,7.20
2023-03-11T15:45:43.595Z,6.20
2023-03-11T15:48:11.702Z,8.80
2023-03-11T15:50:53.323Z,7.20
2023-03-11T15:53:22.678Z,6.60
2023-03-11T15:55:49.782Z,6.30
2023-03-11T15:58:20.103Z,7.20
2023-03-11T16:00:56.763Z,7.60
2023-03-11T16:03:24.645Z,6.10
2023-03-11T16:05:51.779Z,6.50
2023-03-11T16:08:18.754Z,6.10
2023-03-11T16:10:45.856Z,4.00
2023-03-11T16:13:14.861Z,4.30
2023-03-11T16:15:42.937Z,6.40
2023-03-11T16:18:10.463Z,4.70
2023-03-11T16:20:50.738Z,7.00
2023-03-11T16:23:34.001Z,3.80
2023-03-11T16:26:06.553Z,8.30
2023-03-11T16:28:33.600Z,6.80
2023-03-11T16:31:00.767Z,6.20
2023-03-11T16:33:27.942Z,8.40
2023-03-11T16:35:54.919Z,4.90
2023-03-11T16:38:23.566Z,6.60
2023-03-11T16:41:00.086Z,7.80
2023-03-11T16:43:30.049Z,4.70
2023-03-11T16:45:57.457Z,7.30
2023-03-11T16:48:25.135Z,6.00
2023-03-11T16:50:52.242Z,6.90
2023-03-11T16:53:19.651Z,6.10
2023-03-11T16:55:47.134Z,6.20
2023-03-11T16:58:15.050Z,5.70
2023-03-11T17:00:42.858Z,7.20
2023-03-11T17:03:21.387Z,5.30
2023-03-11T17:05:49.084Z,6.10
2023-03-11T17:08:18.450Z,3.60
2023-03-11T17:10:47.074Z,8.90
2023-03-11T17:13:17.755Z,7.90
2023-03-11T17:15:47.290Z,7.00
2023-03-11T17:18:14.318Z,6.90
2023-03-11T17:20:43.720Z,7.60
2023-03-11T17:23:10.919Z,6.30
2023-03-11T17:25:41.800Z,6.30
2023-03-11T17:28:09.452Z,7.10
2023-03-11T17:30:37.625Z,5.60
2023-03-11T17:33:05.162Z,5.90
2023-03-11T17:35:33.738Z,12.30
2023-03-11T17:38:01.003Z,7.30
2023-03-11T17:40:29.498Z,4.50
2023-03-11T17:42:56.520Z,5.10
2023-03-11T17:45:23.593Z,6.50
2023-03-11T17:47:50.665Z,6.90
2023-03-11T17:50:18.014Z,8.00
2023-03-11T17:52:47.885Z,4.60
2023-03-11T17:55:15.118Z,5.30
2023-03-11T17:57:45.532Z,5.50
2023-03-11T18:00:15.113Z,8.40
2023-03-11T18:02:42.419Z,7.10
2023-03-11T18:05:09.607Z,8.20
2023-03-11T18:07:41.317Z,7.30
2023-03-11T18:10:09.424Z,7.00
2023-03-11T18:12:36.636Z,8.00
2023-03-11T18:15:07.497Z,8.80
2023-03-11T18:17:37.180Z,8.10
2023-03-11T18:20:05.172Z,4.40
2023-03-11T18:22:34.112Z,8.00
2023-03-11T18:25:02.120Z,8.70
2023-03-11T18:27:29.075Z,7.30
2023-03-11T18:29:56.050Z,5.90
2023-03-11T18:32:24.891Z,8.60
2023-03-11T18:34:51.903Z,6.80
2023-03-11T18:37:19.072Z,7.50
2023-03-11T18:39:45.980Z,6.20
2023-03-11T18:42:14.291Z,7.90
2023-03-11T18:44:41.972Z,5.10
2023-03-11T18:47:09.091Z,9.30
2023-03-11T18:49:36.380Z,6.90
2023-03-11T18:52:03.523Z,7.10
2023-03-11T18:54:32.539Z,7.80
2023-03-11T18:56:59.570Z,6.50
2023-03-11T18:59:28.148Z,5.90
2023-03-11T19:02:52.207Z,7.90
2023-03-11T19:05:20.045Z,7.30
2023-03-11T19:07:47.069Z,5.50
2023-03-11T19:10:15.607Z,11.50
2023-03-11T19:12:44.677Z,16.20
2023-03-11T19:15:11.857Z,10.50
2023-03-11T19:17:38.841Z,10.90
2023-03-11T19:20:08.921Z,10.00
2023-03-11T19:22:37.068Z,9.40
2023-03-11T19:25:05.440Z,7.40
2023-03-11T19:27:32.700Z,12.30
2023-03-11T19:29:59.621Z,12.00
2023-03-11T19:32:26.696Z,9.30
2023-03-11T19:34:53.687Z,11.20
2023-03-11T19:37:20.724Z,10.50
2023-03-11T19:39:47.635Z,7.00
2023-03-11T19:42:14.752Z,8.20
2023-03-11T19:44:41.739Z,10.70
2023-03-11T19:47:08.842Z,4.90
2023-03-11T19:49:35.802Z,8.80
2023-03-11T19:52:02.789Z,8.80
2023-03-11T19:54:29.734Z,7.70
2023-03-11T19:56:56.727Z,12.00
2023-03-11T19:59:23.647Z,7.40
2023-03-11T20:01:50.608Z,6.50
2023-03-11T20:04:18.039Z,5.50
2023-03-11T20:06:45.509Z,9.30
2023-03-11T20:09:13.605Z,6.50
2023-03-11T20:11:40.889Z,6.20
2023-03-11T20:14:13.268Z,6.20
2023-03-11T20:16:40.540Z,6.20
2023-03-11T20:19:08.139Z,8.10
2023-03-11T20:21:39.471Z,8.20
2023-03-11T20:24:07.489Z,6.10
2023-03-11T20:26:34.472Z,8.00
2023-03-11T20:29:01.416Z,6.00
2023-03-11T20:31:29.037Z,8.30
2023-03-11T20:33:57.256Z,10.00
2023-03-11T20:36:28.573Z,6.80
2023-03-11T20:38:56.124Z,7.10
2023-03-11T20:41:25.384Z,6.80
2023-03-11T20:43:53.780Z,4.70
2023-03-11T20:46:20.919Z,5.90
2023-03-11T20:48:48.409Z,5.30
2023-03-11T20:51:20.617Z,5.40
2023-03-11T20:53:49.606Z,8.60
2023-03-11T20:56:20.226Z,3.80
2023-03-11T20:58:51.237Z,5.10
2023-03-11T21:01:24.939Z,5.00
2023-03-11T21:03:54.460Z,4.40
2023-03-11T21:06:31.664Z,8.30
2023-03-11T21:09:00.642Z,5.00
2023-03-11T21:11:28.140Z,6.30
2023-03-11T21:13:55.800Z,6.50
2023-03-11T21:16:23.485Z,5.60
2023-03-11T21:18:50.572Z,4.90
2023-03-11T21:21:18.563Z,3.50
2023-03-11T21:23:48.239Z,3.10
2023-03-11T21:26:17.538Z,5.50
2023-03-11T21:28:47.091Z,5.60
2023-03-11T21:31:20.605Z,3.80
2023-03-11T21:33:49.280Z,6.00
2023-03-11T21:36:17.483Z,4.80
2023-03-11T21:38:46.273Z,5.00
2023-03-11T21:41:21.064Z,4.00
2023-03-11T21:43:52.426Z,4.50
2023-03-11T21:46:22.503Z,5.60
2023-03-11T21:48:50.464Z,3.70
2023-03-11T21:51:21.905Z,6.90
2023-03-11T21:53:49.000Z,6.50
2023-03-11T21:56:16.836Z,3.70
2023-03-11T21:58:45.061Z,5.30
2023-03-11T22:01:13.461Z,5.80
2023-03-11T22:03:41.398Z,5.30
2023-03-11T22:06:12.195Z,4.60
2023-03-11T22:08:40.628Z,4.30
2023-03-11T22:13:54.234Z,5.40
2023-03-11T22:16:22.494Z,7.40
2023-03-11T22:18:49.876Z,5.70
2023-03-11T22:21:18.315Z,3.80
2023-03-11T22:23:45.762Z,6.30
2023-03-11T22:26:14.123Z,5.60
2023-03-11T22:28:41.060Z,8.70
2023-03-11T22:31:10.107Z,8.30
2023-03-11T22:33:38.135Z,6.20
2023-03-11T22:36:06.015Z,5.80
2023-03-11T22:38:34.414Z,2.40
2023-03-11T22:41:08.068Z,6.20
2023-03-11T22:43:35.702Z,5.30
2023-03-11T22:46:03.941Z,7.90
2023-03-11T22:48:32.167Z,7.40
2023-03-11T22:50:59.293Z,5.20
2023-03-11T22:53:26.357Z,7.70
2023-03-11T22:55:54.091Z,4.10
2023-03-11T22:58:21.206Z,7.00
2023-03-11T23:00:48.524Z,4.20
2023-03-11T23:03:15.665Z,6.20
2023-03-11T23:05:42.821Z,4.20
2023-03-11T23:08:12.204Z,5.70
2023-03-11T23:10:45.444Z,4.70
2023-03-11T23:13:13.109Z,6.90
2023-03-11T23:15:42.440Z,4.70
2023-03-11T23:18:10.288Z,4.00
2023-03-11T23:20:39.190Z,4.30
2023-03-11T23:23:06.749Z,4.80
2023-03-11T23:25:35.547Z,6.90
2023-03-11T23:28:04.769Z,3.30
2023-03-11T23:30:32.131Z,2.80
2023-03-11T23:32:59.574Z,5.00
2023-03-11T23:35:26.721Z,5.90
2023-03-11T23:37:53.740Z,4.90
2023-03-11T23:40:20.792Z,6.70
2023-03-11T23:42:48.417Z,5.80
2023-03-11T23:45:15.377Z,6.30
2023-03-11T23:47:42.598Z,3.90
2023-03-11T23:50:10.073Z,5.20
2023-03-11T23:52:37.212Z,6.30
2023-03-11T23:55:05.735Z,5.30
2023-03-11T23:57:38.108Z,6.40
